KBLF/BLF METAR and TAF weather

Enter ICAO airport designator
Station Type Date Time Source
KBLF METAR 2018/10/19 15:52 UTC NOAA

KBLF 191552Z AUTO 26010KT 10SM CLR 13/06 A3029 RMK AO2 SLP251 T01330061


Station Type Date Time Source
KBLF Decoded METAR 2018/10/19 15:52 UTC NOAA

BLUEFIELD MERCER COUNTY AIRPORT , WV, United States (KBLF) 37-18N 081-12W 873M
Oct 19, 2018 - 11:52 AM EDT / 2018.10.19 1552 UTC
Wind: from the W (260 degrees) at 12 MPH (10 KT):0
Visibility: 10 mile(s):0
Sky conditions: clear
Temperature: 55.9 F (13.3 C)
Dew Point: 43.0 F (6.1 C)
Relative Humidity: 61%
Pressure (altimeter): 30.29 in. Hg (1025 hPa)
ob: KBLF 191552Z AUTO 26010KT 10SM CLR 13/06 A3029 RMK AO2 SLP251 T01330061
cycle: 16

Station Type Date Time Source
KBLF TAF 2018/10/19 12:27 UTC NOAA

TAF KBLF 191124Z 1912/2012 00000KT P6SM SKC
FM191600 23007KT P6SM FEW250
FM200200 25006KT P6SM VCSH OVC050
FM200400 25008G18KT 4SM -SHRA OVC025


Example: see airport list